Portada
METAR-TAF:

METAR-TAF

Aeropuertos :

Maragheh, Irán

latitud: 37-20-55N, longitud: 046-07-35E, altitud: 1340 m

Observación

El informe se hizo hace 17 minutos, a las 00:00 UTC
Viento 4 kt del este
Temperatura 12°C
Humedad 67%
Presión 1014 hPa
Visibilidad: 7000 m

METAR: OITM 180000Z 09004KT 7000 NSC 12/06 Q1014

Hora: 04:47 (00:17 UTC)


TAF: falta

Observaciones y pronósticos meteorológicos de más de 4000 aeropuertos (mensajes METAR y TAF).

Los puntos amarillos y rojos representan las estaciones disponibles.

Ponga el ratón en el punto deseado para ver el nombre de la estación.

Haga clic para ver las observaciones y los pronósticos meteorológicos.

Para cambiar el mapa : haga clic en los botones verdes con una cruz de color negro para hacer un zoom, en el botón verde con un guión para alejar o en las flechas verdes para mapas adyacentes.


METAR-TAF: